sensor_id;sensor_type;location;lat;lon;timestamp;P1;durP1;ratioP1;P2;durP2;ratioP2
29550;SDS011;16488;52.396;10.696;2022-07-23T00:01:32;12.43;;;8.60;;
29550;SDS011;16488;52.396;10.696;2022-07-23T00:03:58;11.18;;;8.27;;
29550;SDS011;16488;52.396;10.696;2022-07-23T00:06:24;13.68;;;8.77;;
29550;SDS011;16488;52.396;10.696;2022-07-23T00:08:49;13.55;;;9.43;;
29550;SDS011;16488;52.396;10.696;2022-07-23T00:11:16;20.65;;;9.32;;
29550;SDS011;16488;52.396;10.696;2022-07-23T00:13:41;13.10;;;9.10;;
29550;SDS011;16488;52.396;10.696;2022-07-23T00:16:07;16.80;;;9.90;;
29550;SDS011;16488;52.396;10.696;2022-07-23T00:18:33;18.13;;;8.68;;
29550;SDS011;16488;52.396;10.696;2022-07-23T00:20:59;12.63;;;7.95;;
29550;SDS011;16488;52.396;10.696;2022-07-23T00:23:25;14.80;;;9.07;;
29550;SDS011;16488;52.396;10.696;2022-07-23T00:25:52;16.08;;;8.57;;
29550;SDS011;16488;52.396;10.696;2022-07-23T00:28:18;12.75;;;8.80;;
29550;SDS011;16488;52.396;10.696;2022-07-23T00:30:44;15.23;;;9.55;;
29550;SDS011;16488;52.396;10.696;2022-07-23T00:33:10;16.35;;;10.20;;
29550;SDS011;16488;52.396;10.696;2022-07-23T00:35:36;14.23;;;9.18;;
29550;SDS011;16488;52.396;10.696;2022-07-23T00:38:05;13.95;;;9.82;;
29550;SDS011;16488;52.396;10.696;2022-07-23T00:40:32;14.15;;;9.82;;
29550;SDS011;16488;52.396;10.696;2022-07-23T00:42:58;17.67;;;9.63;;
29550;SDS011;16488;52.396;10.696;2022-07-23T00:45:24;10.73;;;8.15;;
29550;SDS011;16488;52.396;10.696;2022-07-23T00:47:50;13.98;;;8.80;;
29550;SDS011;16488;52.396;10.696;2022-07-23T00:50:16;15.87;;;8.73;;
29550;SDS011;16488;52.396;10.696;2022-07-23T00:52:41;13.52;;;9.63;;
29550;SDS011;16488;52.396;10.696;2022-07-23T00:55:08;14.98;;;9.52;;
29550;SDS011;16488;52.396;10.696;2022-07-23T00:57:35;17.00;;;9.32;;
29550;SDS011;16488;52.396;10.696;2022-07-23T01:02:28;11.88;;;8.73;;
29550;SDS011;16488;52.396;10.696;2022-07-23T01:04:53;17.10;;;10.38;;
29550;SDS011;16488;52.396;10.696;2022-07-23T01:07:19;17.80;;;9.90;;
29550;SDS011;16488;52.396;10.696;2022-07-23T01:09:45;13.65;;;9.32;;
29550;SDS011;16488;52.396;10.696;2022-07-23T01:12:11;15.30;;;9.82;;
29550;SDS011;16488;52.396;10.696;2022-07-23T01:14:37;14.05;;;8.98;;
29550;SDS011;16488;52.396;10.696;2022-07-23T01:17:03;14.52;;;9.40;;
29550;SDS011;16488;52.396;10.696;2022-07-23T01:19:29;17.73;;;9.85;;
29550;SDS011;16488;52.396;10.696;2022-07-23T01:21:55;16.70;;;8.70;;
29550;SDS011;16488;52.396;10.696;2022-07-23T01:24:23;19.67;;;8.68;;
29550;SDS011;16488;52.396;10.696;2022-07-23T01:26:49;15.00;;;9.30;;
29550;SDS011;16488;52.396;10.696;2022-07-23T01:31:41;12.25;;;8.80;;
29550;SDS011;16488;52.396;10.696;2022-07-23T01:36:33;11.75;;;8.40;;
29550;SDS011;16488;52.396;10.696;2022-07-23T01:39:00;13.40;;;8.23;;
29550;SDS011;16488;52.396;10.696;2022-07-23T01:43:51;10.05;;;7.55;;
29550;SDS011;16488;52.396;10.696;2022-07-23T01:46:17;12.77;;;7.43;;
29550;SDS011;16488;52.396;10.696;2022-07-23T01:48:43;13.15;;;8.38;;
29550;SDS011;16488;52.396;10.696;2022-07-23T01:51:08;16.33;;;10.50;;
29550;SDS011;16488;52.396;10.696;2022-07-23T01:53:34;13.87;;;8.10;;
29550;SDS011;16488;52.396;10.696;2022-07-23T01:56:00;14.90;;;9.40;;
29550;SDS011;16488;52.396;10.696;2022-07-23T01:58:26;19.08;;;8.75;;
29550;SDS011;16488;52.396;10.696;2022-07-23T02:00:52;12.15;;;8.52;;
29550;SDS011;16488;52.396;10.696;2022-07-23T02:03:19;11.50;;;7.68;;
29550;SDS011;16488;52.396;10.696;2022-07-23T02:05:45;12.27;;;8.82;;
29550;SDS011;16488;52.396;10.696;2022-07-23T02:08:11;10.68;;;8.23;;
29550;SDS011;16488;52.396;10.696;2022-07-23T02:10:36;11.60;;;6.83;;
29550;SDS011;16488;52.396;10.696;2022-07-23T02:13:02;12.27;;;7.77;;
29550;SDS011;16488;52.396;10.696;2022-07-23T02:15:28;10.37;;;7.40;;
29550;SDS011;16488;52.396;10.696;2022-07-23T02:17:53;14.38;;;8.85;;
29550;SDS011;16488;52.396;10.696;2022-07-23T02:20:19;12.23;;;8.45;;
29550;SDS011;16488;52.396;10.696;2022-07-23T02:22:45;11.07;;;8.00;;
29550;SDS011;16488;52.396;10.696;2022-07-23T02:25:11;13.20;;;8.77;;
29550;SDS011;16488;52.396;10.696;2022-07-23T02:27:36;11.38;;;8.13;;
29550;SDS011;16488;52.396;10.696;2022-07-23T02:30:02;12.63;;;9.13;;
29550;SDS011;16488;52.396;10.696;2022-07-23T02:34:54;11.85;;;8.68;;
29550;SDS011;16488;52.396;10.696;2022-07-23T02:37:20;16.00;;;7.83;;
29550;SDS011;16488;52.396;10.696;2022-07-23T02:39:45;11.97;;;9.00;;
29550;SDS011;16488;52.396;10.696;2022-07-23T02:42:13;12.27;;;8.48;;
29550;SDS011;16488;52.396;10.696;2022-07-23T02:44:39;15.13;;;8.25;;
29550;SDS011;16488;52.396;10.696;2022-07-23T02:47:04;17.08;;;10.10;;
29550;SDS011;16488;52.396;10.696;2022-07-23T02:49:30;14.57;;;9.73;;
29550;SDS011;16488;52.396;10.696;2022-07-23T02:51:56;12.70;;;9.68;;
29550;SDS011;16488;52.396;10.696;2022-07-23T02:54:21;15.30;;;8.77;;
29550;SDS011;16488;52.396;10.696;2022-07-23T02:56:47;14.73;;;9.17;;
29550;SDS011;16488;52.396;10.696;2022-07-23T02:59:13;13.23;;;9.40;;
29550;SDS011;16488;52.396;10.696;2022-07-23T03:01:38;21.35;;;10.52;;
29550;SDS011;16488;52.396;10.696;2022-07-23T03:04:04;13.20;;;9.77;;
29550;SDS011;16488;52.396;10.696;2022-07-23T03:06:29;13.13;;;8.80;;
29550;SDS011;16488;52.396;10.696;2022-07-23T03:08:55;14.07;;;8.88;;
29550;SDS011;16488;52.396;10.696;2022-07-23T03:11:21;13.77;;;9.17;;
29550;SDS011;16488;52.396;10.696;2022-07-23T03:13:46;14.75;;;9.35;;
29550;SDS011;16488;52.396;10.696;2022-07-23T03:16:12;14.50;;;8.70;;
29550;SDS011;16488;52.396;10.696;2022-07-23T03:18:37;13.27;;;8.53;;
29550;SDS011;16488;52.396;10.696;2022-07-23T03:21:03;11.57;;;9.43;;
29550;SDS011;16488;52.396;10.696;2022-07-23T03:23:28;15.27;;;10.60;;
29550;SDS011;16488;52.396;10.696;2022-07-23T03:25:54;11.80;;;8.30;;
29550;SDS011;16488;52.396;10.696;2022-07-23T03:28:20;17.43;;;9.80;;
29550;SDS011;16488;52.396;10.696;2022-07-23T03:30:45;14.85;;;9.90;;
29550;SDS011;16488;52.396;10.696;2022-07-23T03:35:38;13.07;;;9.73;;
29550;SDS011;16488;52.396;10.696;2022-07-23T03:38:03;17.33;;;11.17;;
29550;SDS011;16488;52.396;10.696;2022-07-23T03:40:29;16.30;;;11.70;;
29550;SDS011;16488;52.396;10.696;2022-07-23T03:42:54;18.48;;;11.63;;
29550;SDS011;16488;52.396;10.696;2022-07-23T03:45:20;17.17;;;11.83;;
29550;SDS011;16488;52.396;10.696;2022-07-23T03:47:45;19.23;;;13.63;;
29550;SDS011;16488;52.396;10.696;2022-07-23T03:50:11;23.37;;;13.97;;
29550;SDS011;16488;52.396;10.696;2022-07-23T03:52:37;19.48;;;13.35;;
29550;SDS011;16488;52.396;10.696;2022-07-23T03:55:03;20.50;;;13.67;;
29550;SDS011;16488;52.396;10.696;2022-07-23T03:59:54;18.92;;;11.50;;
29550;SDS011;16488;52.396;10.696;2022-07-23T04:02:20;19.70;;;14.13;;
29550;SDS011;16488;52.396;10.696;2022-07-23T04:04:45;20.60;;;14.03;;
29550;SDS011;16488;52.396;10.696;2022-07-23T04:07:11;21.50;;;14.13;;
29550;SDS011;16488;52.396;10.696;2022-07-23T04:09:37;19.88;;;13.88;;
29550;SDS011;16488;52.396;10.696;2022-07-23T04:12:05;24.95;;;13.52;;
29550;SDS011;16488;52.396;10.696;2022-07-23T04:14:31;18.98;;;12.00;;
29550;SDS011;16488;52.396;10.696;2022-07-23T04:16:57;17.88;;;12.32;;
29550;SDS011;16488;52.396;10.696;2022-07-23T04:19:24;17.63;;;12.23;;
29550;SDS011;16488;52.396;10.696;2022-07-23T04:21:50;20.00;;;12.02;;
29550;SDS011;16488;52.396;10.696;2022-07-23T04:24:16;22.30;;;12.95;;
29550;SDS011;16488;52.396;10.696;2022-07-23T04:26:42;24.88;;;13.93;;
29550;SDS011;16488;52.396;10.696;2022-07-23T04:29:08;29.38;;;14.48;;
29550;SDS011;16488;52.396;10.696;2022-07-23T04:31:34;23.10;;;13.38;;
29550;SDS011;16488;52.396;10.696;2022-07-23T04:33:59;26.43;;;12.10;;
29550;SDS011;16488;52.396;10.696;2022-07-23T04:36:25;18.13;;;11.53;;
29550;SDS011;16488;52.396;10.696;2022-07-23T04:38:50;18.57;;;13.10;;
29550;SDS011;16488;52.396;10.696;2022-07-23T04:41:16;18.75;;;12.68;;
29550;SDS011;16488;52.396;10.696;2022-07-23T04:43:41;21.40;;;11.63;;
29550;SDS011;16488;52.396;10.696;2022-07-23T04:46:07;16.07;;;11.50;;
29550;SDS011;16488;52.396;10.696;2022-07-23T04:48:33;25.77;;;12.87;;
29550;SDS011;16488;52.396;10.696;2022-07-23T04:50:58;22.17;;;12.70;;
29550;SDS011;16488;52.396;10.696;2022-07-23T04:53:24;21.67;;;13.07;;
29550;SDS011;16488;52.396;10.696;2022-07-23T04:55:49;21.45;;;12.95;;
29550;SDS011;16488;52.396;10.696;2022-07-23T04:58:15;19.87;;;12.90;;
29550;SDS011;16488;52.396;10.696;2022-07-23T05:00:40;21.33;;;13.13;;
29550;SDS011;16488;52.396;10.696;2022-07-23T05:03:06;16.80;;;11.77;;
29550;SDS011;16488;52.396;10.696;2022-07-23T05:05:32;22.23;;;12.23;;
29550;SDS011;16488;52.396;10.696;2022-07-23T05:07:57;20.58;;;12.45;;
29550;SDS011;16488;52.396;10.696;2022-07-23T05:10:23;19.53;;;13.60;;
29550;SDS011;16488;52.396;10.696;2022-07-23T05:12:48;20.25;;;13.60;;
29550;SDS011;16488;52.396;10.696;2022-07-23T05:15:14;22.50;;;13.00;;
29550;SDS011;16488;52.396;10.696;2022-07-23T05:17:39;21.47;;;14.83;;
29550;SDS011;16488;52.396;10.696;2022-07-23T05:20:05;30.70;;;15.37;;
29550;SDS011;16488;52.396;10.696;2022-07-23T05:24:58;21.25;;;13.75;;
29550;SDS011;16488;52.396;10.696;2022-07-23T05:27:23;19.90;;;13.00;;
29550;SDS011;16488;52.396;10.696;2022-07-23T05:29:49;20.02;;;12.38;;
29550;SDS011;16488;52.396;10.696;2022-07-23T05:32:15;19.23;;;12.63;;
29550;SDS011;16488;52.396;10.696;2022-07-23T05:34:40;18.45;;;12.75;;
29550;SDS011;16488;52.396;10.696;2022-07-23T05:37:06;20.33;;;12.37;;
29550;SDS011;16488;52.396;10.696;2022-07-23T05:39:32;21.70;;;13.30;;
29550;SDS011;16488;52.396;10.696;2022-07-23T05:41:57;27.67;;;12.93;;
29550;SDS011;16488;52.396;10.696;2022-07-23T05:44:23;19.63;;;13.10;;
29550;SDS011;16488;52.396;10.696;2022-07-23T05:46:48;25.30;;;12.85;;
29550;SDS011;16488;52.396;10.696;2022-07-23T05:49:14;20.83;;;14.00;;
29550;SDS011;16488;52.396;10.696;2022-07-23T05:51:39;19.57;;;12.73;;
29550;SDS011;16488;52.396;10.696;2022-07-23T05:54:05;19.63;;;12.63;;
29550;SDS011;16488;52.396;10.696;2022-07-23T05:56:31;17.98;;;12.57;;
29550;SDS011;16488;52.396;10.696;2022-07-23T05:58:56;23.30;;;12.27;;
29550;SDS011;16488;52.396;10.696;2022-07-23T06:01:22;19.80;;;12.23;;
29550;SDS011;16488;52.396;10.696;2022-07-23T06:03:48;22.55;;;15.65;;
29550;SDS011;16488;52.396;10.696;2022-07-23T06:06:15;21.07;;;13.47;;
29550;SDS011;16488;52.396;10.696;2022-07-23T06:08:42;20.33;;;12.95;;
29550;SDS011;16488;52.396;10.696;2022-07-23T06:11:08;17.87;;;12.83;;
29550;SDS011;16488;52.396;10.696;2022-07-23T06:13:33;15.75;;;11.20;;
29550;SDS011;16488;52.396;10.696;2022-07-23T06:15:59;22.83;;;14.43;;
29550;SDS011;16488;52.396;10.696;2022-07-23T06:18:24;16.87;;;12.67;;
29550;SDS011;16488;52.396;10.696;2022-07-23T06:20:50;18.13;;;13.30;;
29550;SDS011;16488;52.396;10.696;2022-07-23T06:23:16;18.30;;;11.83;;
29550;SDS011;16488;52.396;10.696;2022-07-23T06:25:41;21.77;;;12.77;;
29550;SDS011;16488;52.396;10.696;2022-07-23T06:30:33;17.27;;;10.25;;
29550;SDS011;16488;52.396;10.696;2022-07-23T06:32:59;17.33;;;10.10;;
29550;SDS011;16488;52.396;10.696;2022-07-23T06:35:24;15.73;;;10.07;;
29550;SDS011;16488;52.396;10.696;2022-07-23T06:37:50;19.35;;;10.15;;
29550;SDS011;16488;52.396;10.696;2022-07-23T06:40:15;18.13;;;10.20;;
29550;SDS011;16488;52.396;10.696;2022-07-23T06:42:41;13.83;;;9.23;;
29550;SDS011;16488;52.396;10.696;2022-07-23T06:45:07;14.97;;;8.77;;
29550;SDS011;16488;52.396;10.696;2022-07-23T06:47:33;14.60;;;8.70;;
29550;SDS011;16488;52.396;10.696;2022-07-23T06:49:58;18.47;;;8.53;;
29550;SDS011;16488;52.396;10.696;2022-07-23T06:52:24;11.63;;;7.13;;
29550;SDS011;16488;52.396;10.696;2022-07-23T06:54:50;14.95;;;7.18;;
29550;SDS011;16488;52.396;10.696;2022-07-23T06:57:16;9.65;;;6.45;;
29550;SDS011;16488;52.396;10.696;2022-07-23T06:59:42;17.60;;;7.13;;
29550;SDS011;16488;52.396;10.696;2022-07-23T07:02:07;10.90;;;5.67;;
29550;SDS011;16488;52.396;10.696;2022-07-23T07:04:33;14.73;;;6.63;;
29550;SDS011;16488;52.396;10.696;2022-07-23T07:06:59;10.30;;;5.40;;
29550;SDS011;16488;52.396;10.696;2022-07-23T07:09:24;11.23;;;5.57;;
29550;SDS011;16488;52.396;10.696;2022-07-23T07:11:50;12.57;;;6.17;;
29550;SDS011;16488;52.396;10.696;2022-07-23T07:14:15;17.20;;;6.00;;
29550;SDS011;16488;52.396;10.696;2022-07-23T07:16:41;11.07;;;6.07;;
29550;SDS011;16488;52.396;10.696;2022-07-23T07:19:07;9.15;;;5.97;;
29550;SDS011;16488;52.396;10.696;2022-07-23T07:21:33;18.17;;;6.50;;
29550;SDS011;16488;52.396;10.696;2022-07-23T07:23:59;10.15;;;5.72;;
29550;SDS011;16488;52.396;10.696;2022-07-23T07:26:25;10.20;;;6.25;;
29550;SDS011;16488;52.396;10.696;2022-07-23T07:28:50;13.80;;;5.85;;
29550;SDS011;16488;52.396;10.696;2022-07-23T07:31:16;17.27;;;5.63;;
29550;SDS011;16488;52.396;10.696;2022-07-23T07:33:41;9.80;;;5.97;;
29550;SDS011;16488;52.396;10.696;2022-07-23T07:36:07;11.52;;;6.18;;
29550;SDS011;16488;52.396;10.696;2022-07-23T07:38:33;7.72;;;5.10;;
29550;SDS011;16488;52.396;10.696;2022-07-23T07:40:59;9.05;;;6.07;;
29550;SDS011;16488;52.396;10.696;2022-07-23T07:43:24;7.78;;;5.47;;
29550;SDS011;16488;52.396;10.696;2022-07-23T07:45:50;9.20;;;6.43;;
29550;SDS011;16488;52.396;10.696;2022-07-23T07:48:16;9.30;;;5.57;;
29550;SDS011;16488;52.396;10.696;2022-07-23T07:50:41;14.27;;;5.88;;
29550;SDS011;16488;52.396;10.696;2022-07-23T07:53:07;15.02;;;6.68;;
29550;SDS011;16488;52.396;10.696;2022-07-23T07:57:59;9.48;;;4.97;;
29550;SDS011;16488;52.396;10.696;2022-07-23T08:00:25;13.55;;;5.43;;
29550;SDS011;16488;52.396;10.696;2022-07-23T08:02:51;14.73;;;5.50;;
29550;SDS011;16488;52.396;10.696;2022-07-23T08:05:19;7.57;;;5.18;;
29550;SDS011;16488;52.396;10.696;2022-07-23T08:07:48;10.07;;;4.90;;
29550;SDS011;16488;52.396;10.696;2022-07-23T08:10:14;14.73;;;5.18;;
29550;SDS011;16488;52.396;10.696;2022-07-23T08:12:42;8.30;;;4.88;;
29550;SDS011;16488;52.396;10.696;2022-07-23T08:15:15;8.05;;;3.92;;
29550;SDS011;16488;52.396;10.696;2022-07-23T08:17:42;8.75;;;2.75;;
29550;SDS011;16488;52.396;10.696;2022-07-23T08:20:09;6.15;;;2.88;;
29550;SDS011;16488;52.396;10.696;2022-07-23T08:25:08;6.60;;;3.92;;
29550;SDS011;16488;52.396;10.696;2022-07-23T08:27:34;6.30;;;3.65;;
29550;SDS011;16488;52.396;10.696;2022-07-23T08:30:00;7.00;;;3.57;;
29550;SDS011;16488;52.396;10.696;2022-07-23T08:32:25;7.47;;;3.80;;
29550;SDS011;16488;52.396;10.696;2022-07-23T08:34:51;10.18;;;3.97;;
29550;SDS011;16488;52.396;10.696;2022-07-23T08:37:16;8.07;;;3.70;;
29550;SDS011;16488;52.396;10.696;2022-07-23T08:39:42;5.00;;;3.00;;
29550;SDS011;16488;52.396;10.696;2022-07-23T08:42:08;5.90;;;3.87;;
29550;SDS011;16488;52.396;10.696;2022-07-23T08:44:34;5.18;;;3.08;;
29550;SDS011;16488;52.396;10.696;2022-07-23T08:47:00;6.40;;;2.80;;
29550;SDS011;16488;52.396;10.696;2022-07-23T08:51:54;4.95;;;2.58;;
29550;SDS011;16488;52.396;10.696;2022-07-23T08:54:21;5.50;;;2.70;;
29550;SDS011;16488;52.396;10.696;2022-07-23T08:56:48;4.55;;;2.97;;
29550;SDS011;16488;52.396;10.696;2022-07-23T09:01:39;4.80;;;2.22;;
29550;SDS011;16488;52.396;10.696;2022-07-23T09:04:05;7.18;;;2.30;;
29550;SDS011;16488;52.396;10.696;2022-07-23T09:06:30;6.72;;;2.15;;
29550;SDS011;16488;52.396;10.696;2022-07-23T09:08:56;7.38;;;2.15;;
29550;SDS011;16488;52.396;10.696;2022-07-23T09:11:22;5.97;;;2.50;;
29550;SDS011;16488;52.396;10.696;2022-07-23T09:13:51;6.97;;;2.90;;
29550;SDS011;16488;52.396;10.696;2022-07-23T09:16:20;6.38;;;2.88;;
29550;SDS011;16488;52.396;10.696;2022-07-23T09:18:56;5.00;;;2.10;;
29550;SDS011;16488;52.396;10.696;2022-07-23T09:21:25;5.70;;;2.58;;
29550;SDS011;16488;52.396;10.696;2022-07-23T09:24:02;8.55;;;2.10;;
29550;SDS011;16488;52.396;10.696;2022-07-23T09:26:42;7.28;;;2.00;;
29550;SDS011;16488;52.396;10.696;2022-07-23T09:29:13;4.03;;;1.92;;
29550;SDS011;16488;52.396;10.696;2022-07-23T09:34:19;3.72;;;2.00;;
29550;SDS011;16488;52.396;10.696;2022-07-23T09:36:53;3.65;;;1.63;;
29550;SDS011;16488;52.396;10.696;2022-07-23T09:41:53;7.22;;;1.92;;
29550;SDS011;16488;52.396;10.696;2022-07-23T09:44:20;3.13;;;1.58;;
29550;SDS011;16488;52.396;10.696;2022-07-23T09:46:47;5.38;;;1.67;;
29550;SDS011;16488;52.396;10.696;2022-07-23T09:49:20;5.13;;;2.08;;
29550;SDS011;16488;52.396;10.696;2022-07-23T09:54:21;8.90;;;2.20;;
29550;SDS011;16488;52.396;10.696;2022-07-23T09:56:47;3.30;;;1.70;;
29550;SDS011;16488;52.396;10.696;2022-07-23T09:59:14;4.07;;;1.70;;
29550;SDS011;16488;52.396;10.696;2022-07-23T10:01:42;5.30;;;1.60;;
29550;SDS011;16488;52.396;10.696;2022-07-23T10:04:09;9.18;;;1.85;;
29550;SDS011;16488;52.396;10.696;2022-07-23T10:06:36;2.13;;;1.40;;
29550;SDS011;16488;52.396;10.696;2022-07-23T10:09:04;4.80;;;1.95;;
29550;SDS011;16488;52.396;10.696;2022-07-23T10:11:32;2.88;;;1.63;;
29550;SDS011;16488;52.396;10.696;2022-07-23T10:13:59;4.35;;;1.52;;
29550;SDS011;16488;52.396;10.696;2022-07-23T10:16:28;3.28;;;1.75;;
29550;SDS011;16488;52.396;10.696;2022-07-23T10:18:54;5.93;;;1.67;;
29550;SDS011;16488;52.396;10.696;2022-07-23T10:24:16;3.13;;;1.70;;
29550;SDS011;16488;52.396;10.696;2022-07-23T10:37:45;2.53;;;1.70;;
29550;SDS011;16488;52.396;10.696;2022-07-23T10:40:15;6.10;;;1.60;;
29550;SDS011;16488;52.396;10.696;2022-07-23T10:42:47;4.60;;;1.40;;
29550;SDS011;16488;52.396;10.696;2022-07-23T10:47:48;5.60;;;1.83;;
29550;SDS011;16488;52.396;10.696;2022-07-23T10:50:21;2.83;;;1.42;;
29550;SDS011;16488;52.396;10.696;2022-07-23T10:53:29;2.80;;;1.27;;
29550;SDS011;16488;52.396;10.696;2022-07-23T10:55:41;5.60;;;1.80;;
29550;SDS011;16488;52.396;10.696;2022-07-23T10:58:16;6.95;;;1.55;;
29550;SDS011;16488;52.396;10.696;2022-07-23T11:00:49;2.55;;;1.50;;
29550;SDS011;16488;52.396;10.696;2022-07-23T11:03:27;2.78;;;1.52;;
29550;SDS011;16488;52.396;10.696;2022-07-23T11:05:54;7.63;;;2.00;;
29550;SDS011;16488;52.396;10.696;2022-07-23T11:08:19;2.87;;;1.60;;
29550;SDS011;16488;52.396;10.696;2022-07-23T11:32:00;5.53;;;2.05;;
29550;SDS011;16488;52.396;10.696;2022-07-23T11:37:07;2.90;;;1.30;;
29550;SDS011;16488;52.396;10.696;2022-07-23T11:39:35;4.10;;;1.48;;
29550;SDS011;16488;52.396;10.696;2022-07-23T11:42:02;4.97;;;2.22;;
29550;SDS011;16488;52.396;10.696;2022-07-23T11:44:35;2.58;;;1.20;;
29550;SDS011;16488;52.396;10.696;2022-07-23T11:47:06;2.67;;;1.38;;
29550;SDS011;16488;52.396;10.696;2022-07-23T11:49:37;3.20;;;1.60;;
29550;SDS011;16488;52.396;10.696;2022-07-23T11:54:32;4.40;;;1.20;;
29550;SDS011;16488;52.396;10.696;2022-07-23T11:59:24;2.20;;;1.38;;
29550;SDS011;16488;52.396;10.696;2022-07-23T12:02:00;2.42;;;1.10;;
29550;SDS011;16488;52.396;10.696;2022-07-23T12:04:44;4.13;;;1.20;;
29550;SDS011;16488;52.396;10.696;2022-07-23T12:07:24;2.92;;;1.10;;
29550;SDS011;16488;52.396;10.696;2022-07-23T12:09:51;3.55;;;2.00;;
29550;SDS011;16488;52.396;10.696;2022-07-23T12:12:17;1.67;;;1.02;;
29550;SDS011;16488;52.396;10.696;2022-07-23T12:14:56;3.75;;;1.05;;
29550;SDS011;16488;52.396;10.696;2022-07-23T12:17:44;5.72;;;1.33;;
29550;SDS011;16488;52.396;10.696;2022-07-23T12:20:12;2.45;;;1.15;;
29550;SDS011;16488;52.396;10.696;2022-07-23T12:22:43;4.50;;;1.48;;
29550;SDS011;16488;52.396;10.696;2022-07-23T12:25:13;2.58;;;1.17;;
29550;SDS011;16488;52.396;10.696;2022-07-23T12:27:40;2.92;;;1.23;;
29550;SDS011;16488;52.396;10.696;2022-07-23T12:30:20;4.00;;;1.15;;
29550;SDS011;16488;52.396;10.696;2022-07-23T12:32:49;3.58;;;1.30;;
29550;SDS011;16488;52.396;10.696;2022-07-23T12:35:17;1.45;;;1.02;;
29550;SDS011;16488;52.396;10.696;2022-07-23T12:37:43;1.73;;;1.20;;
29550;SDS011;16488;52.396;10.696;2022-07-23T12:40:20;2.05;;;1.17;;
29550;SDS011;16488;52.396;10.696;2022-07-23T12:43:01;4.63;;;1.50;;
29550;SDS011;16488;52.396;10.696;2022-07-23T12:45:41;2.40;;;0.98;;
29550;SDS011;16488;52.396;10.696;2022-07-23T12:48:24;1.67;;;1.00;;
29550;SDS011;16488;52.396;10.696;2022-07-23T12:53:18;2.13;;;1.27;;
29550;SDS011;16488;52.396;10.696;2022-07-23T12:55:47;2.63;;;1.38;;
29550;SDS011;16488;52.396;10.696;2022-07-23T12:58:17;4.50;;;0.90;;
29550;SDS011;16488;52.396;10.696;2022-07-23T13:00:56;8.82;;;1.20;;
29550;SDS011;16488;52.396;10.696;2022-07-23T13:03:36;2.80;;;1.02;;
29550;SDS011;16488;52.396;10.696;2022-07-23T13:06:05;1.10;;;1.00;;
29550;SDS011;16488;52.396;10.696;2022-07-23T13:08:33;2.90;;;1.38;;
29550;SDS011;16488;52.396;10.696;2022-07-23T13:10:59;2.20;;;1.00;;
29550;SDS011;16488;52.396;10.696;2022-07-23T13:13:26;2.03;;;1.02;;
29550;SDS011;16488;52.396;10.696;2022-07-23T13:15:56;2.80;;;1.10;;
29550;SDS011;16488;52.396;10.696;2022-07-23T13:18:22;3.10;;;0.90;;
29550;SDS011;16488;52.396;10.696;2022-07-23T13:20:48;1.42;;;1.00;;
29550;SDS011;16488;52.396;10.696;2022-07-23T13:23:14;2.33;;;0.98;;
29550;SDS011;16488;52.396;10.696;2022-07-23T13:25:40;2.28;;;1.13;;
29550;SDS011;16488;52.396;10.696;2022-07-23T13:28:06;1.05;;;0.95;;
29550;SDS011;16488;52.396;10.696;2022-07-23T13:30:32;2.58;;;1.40;;
29550;SDS011;16488;52.396;10.696;2022-07-23T13:32:58;2.08;;;1.10;;
29550;SDS011;16488;52.396;10.696;2022-07-23T13:35:24;1.58;;;1.10;;
29550;SDS011;16488;52.396;10.696;2022-07-23T13:37:50;1.40;;;0.98;;
29550;SDS011;16488;52.396;10.696;2022-07-23T13:40:17;6.20;;;1.67;;
29550;SDS011;16488;52.396;10.696;2022-07-23T13:42:42;2.97;;;0.93;;
29550;SDS011;16488;52.396;10.696;2022-07-23T13:45:08;3.15;;;0.77;;
29550;SDS011;16488;52.396;10.696;2022-07-23T13:47:34;3.50;;;0.98;;
29550;SDS011;16488;52.396;10.696;2022-07-23T13:49:59;2.08;;;1.08;;
29550;SDS011;16488;52.396;10.696;2022-07-23T13:52:25;1.13;;;0.93;;
29550;SDS011;16488;52.396;10.696;2022-07-23T13:54:51;4.63;;;1.00;;
29550;SDS011;16488;52.396;10.696;2022-07-23T13:57:16;1.92;;;0.77;;
29550;SDS011;16488;52.396;10.696;2022-07-23T13:59:42;2.65;;;0.77;;
29550;SDS011;16488;52.396;10.696;2022-07-23T14:02:08;3.47;;;1.52;;
29550;SDS011;16488;52.396;10.696;2022-07-23T14:04:34;1.83;;;0.77;;
29550;SDS011;16488;52.396;10.696;2022-07-23T14:07:00;1.35;;;0.60;;
29550;SDS011;16488;52.396;10.696;2022-07-23T14:09:26;5.63;;;0.90;;
29550;SDS011;16488;52.396;10.696;2022-07-23T14:11:52;2.60;;;1.20;;
29550;SDS011;16488;52.396;10.696;2022-07-23T14:14:18;2.95;;;1.05;;
29550;SDS011;16488;52.396;10.696;2022-07-23T14:16:44;2.08;;;0.70;;
29550;SDS011;16488;52.396;10.696;2022-07-23T14:19:10;3.60;;;0.82;;
29550;SDS011;16488;52.396;10.696;2022-07-23T14:21:36;3.75;;;0.80;;
29550;SDS011;16488;52.396;10.696;2022-07-23T14:26:28;3.22;;;0.88;;
29550;SDS011;16488;52.396;10.696;2022-07-23T14:28:54;1.80;;;0.40;;
29550;SDS011;16488;52.396;10.696;2022-07-23T14:31:19;2.78;;;0.60;;
29550;SDS011;16488;52.396;10.696;2022-07-23T14:33:45;2.00;;;0.77;;
29550;SDS011;16488;52.396;10.696;2022-07-23T14:36:10;1.25;;;0.63;;
29550;SDS011;16488;52.396;10.696;2022-07-23T14:38:36;1.55;;;0.60;;
29550;SDS011;16488;52.396;10.696;2022-07-23T14:41:02;1.35;;;0.80;;
29550;SDS011;16488;52.396;10.696;2022-07-23T14:43:31;3.58;;;0.70;;
29550;SDS011;16488;52.396;10.696;2022-07-23T14:45:57;1.15;;;0.60;;
29550;SDS011;16488;52.396;10.696;2022-07-23T14:48:23;1.75;;;0.50;;
29550;SDS011;16488;52.396;10.696;2022-07-23T14:50:48;4.80;;;0.70;;
29550;SDS011;16488;52.396;10.696;2022-07-23T14:53:14;1.00;;;0.82;;
29550;SDS011;16488;52.396;10.696;2022-07-23T14:55:39;1.65;;;0.93;;
29550;SDS011;16488;52.396;10.696;2022-07-23T14:58:05;4.43;;;0.93;;
29550;SDS011;16488;52.396;10.696;2022-07-23T15:00:30;2.25;;;0.73;;
29550;SDS011;16488;52.396;10.696;2022-07-23T15:02:56;2.77;;;0.70;;
29550;SDS011;16488;52.396;10.696;2022-07-23T15:05:22;0.60;;;0.60;;
29550;SDS011;16488;52.396;10.696;2022-07-23T15:07:47;4.07;;;0.60;;
29550;SDS011;16488;52.396;10.696;2022-07-23T15:12:39;1.73;;;0.80;;
29550;SDS011;16488;52.396;10.696;2022-07-23T15:15:04;2.03;;;0.88;;
29550;SDS011;16488;52.396;10.696;2022-07-23T15:17:32;1.58;;;0.85;;
29550;SDS011;16488;52.396;10.696;2022-07-23T15:19:58;2.72;;;0.82;;
29550;SDS011;16488;52.396;10.696;2022-07-23T15:22:23;1.15;;;0.70;;
29550;SDS011;16488;52.396;10.696;2022-07-23T15:24:49;19.90;;;2.80;;
29550;SDS011;16488;52.396;10.696;2022-07-23T15:27:15;7.97;;;1.77;;
29550;SDS011;16488;52.396;10.696;2022-07-23T15:29:42;17.23;;;2.42;;
29550;SDS011;16488;52.396;10.696;2022-07-23T15:32:08;23.73;;;3.00;;
29550;SDS011;16488;52.396;10.696;2022-07-23T15:34:35;3.17;;;0.80;;
29550;SDS011;16488;52.396;10.696;2022-07-23T15:37:01;1.08;;;0.65;;
29550;SDS011;16488;52.396;10.696;2022-07-23T15:39:26;2.58;;;0.77;;
29550;SDS011;16488;52.396;10.696;2022-07-23T15:41:52;2.22;;;0.60;;
29550;SDS011;16488;52.396;10.696;2022-07-23T15:44:17;8.10;;;1.25;;
29550;SDS011;16488;52.396;10.696;2022-07-23T15:46:43;1.42;;;0.60;;
29550;SDS011;16488;52.396;10.696;2022-07-23T15:49:09;1.90;;;0.70;;
29550;SDS011;16488;52.396;10.696;2022-07-23T15:51:34;3.17;;;0.75;;
29550;SDS011;16488;52.396;10.696;2022-07-23T15:54:00;1.83;;;1.00;;
29550;SDS011;16488;52.396;10.696;2022-07-23T15:56:25;1.95;;;0.90;;